Time;durP1;ratioP1;P1;durP2;ratioP2;P2;SDS_P1;SDS_P2;PMS_P1;PMS_P2;Temp;Humidity;BMP_temperature;BMP_pressure;BME280_temperature;BME280_humidity;BME280_pressure;Samples;Min_cycle;Max_cycle;Signal;HPM_P1;HPM_P2
2022/08/22 00:02:29;;;;;;;5.53;4.07;;;17.40;99.90;;;;;;5097666;28;20969;-50
2022/08/22 00:05:03;;;;;;;4.80;4.10;;;17.40;99.90;;;;;;5098344;28;20743;-47
2022/08/22 00:07:41;;;;;;;5.70;3.80;;;17.30;99.90;;;;;;5098316;28;20498;-49
2022/08/22 00:10:14;;;;;;;4.23;3.70;;;17.10;99.90;;;;;;5098564;28;20463;-49
2022/08/22 00:12:54;;;;;;;7.37;4.33;;;17.00;99.90;;;;;;5097536;28;20885;-50
2022/08/22 00:15:27;;;;;;;4.90;3.90;;;16.90;99.90;;;;;;5097422;28;20937;-48
2022/08/22 00:18:04;;;;;;;6.63;5.70;;;16.80;99.90;;;;;;5098295;28;20439;-51
2022/08/22 00:20:41;;;;;;;5.27;4.20;;;16.80;99.90;;;;;;5097096;28;20535;-55
2022/08/22 00:23:18;;;;;;;4.57;3.33;;;16.80;99.90;;;;;;5097426;28;20715;-50
2022/08/22 00:25:59;;;;;;;8.10;4.13;;;16.90;99.90;;;;;;5097799;28;20460;-50
2022/08/22 00:28:31;;;;;;;5.87;4.90;;;16.90;99.90;;;;;;5077442;28;20440;-50
2022/08/22 00:31:18;;;;;;;7.00;4.60;;;16.80;99.90;;;;;;5078180;28;20596;-50
2022/08/22 00:33:50;;;;;;;7.00;4.27;;;16.80;99.90;;;;;;5078372;28;20536;-49
2022/08/22 00:36:26;;;;;;;8.50;3.90;;;16.70;99.90;;;;;;5094541;28;20551;-52
2022/08/22 00:39:03;;;;;;;5.83;4.03;;;16.70;99.90;;;;;;5098598;28;20943;-55
2022/08/22 00:41:53;;;;;;;5.17;4.07;;;16.50;99.90;;;;;;5098651;28;20460;-50
2022/08/22 00:44:43;;;;;;;5.33;4.60;;;16.40;99.90;;;;;;5082060;28;20468;-53
2022/08/22 00:47:37;;;;;;;5.07;4.30;;;16.40;99.90;;;;;;5097971;28;20927;-53
2022/08/22 00:50:29;;;;;;;8.50;4.20;;;16.40;99.90;;;;;;5098225;28;20574;-55
2022/08/22 00:53:30;;;;;;;5.20;4.40;;;16.40;99.90;;;;;;5097552;28;20863;-53
2022/08/22 00:56:35;;;;;;;6.00;4.77;;;16.30;99.90;;;;;;5098422;28;20459;-53
2022/08/22 00:59:30;;;;;;;6.00;3.90;;;16.10;99.90;;;;;;5081003;28;20514;-51
2022/08/22 01:02:07;;;;;;;4.83;4.40;;;16.10;99.90;;;;;;5098029;28;20464;-51
2022/08/22 01:04:53;;;;;;;6.43;4.80;;;16.00;99.90;;;;;;5097118;28;20466;-56
2022/08/22 01:07:58;;;;;;;8.70;5.23;;;16.00;99.90;;;;;;5097035;28;20875;-52
2022/08/22 01:10:40;;;;;;;6.13;4.60;;;16.00;99.90;;;;;;5096939;28;20442;-48
2022/08/22 01:13:24;;;;;;;11.20;4.60;;;16.00;99.90;;;;;;5097096;28;20794;-49
2022/08/22 01:16:05;;;;;;;4.97;4.47;;;16.00;99.90;;;;;;5077357;28;20981;-48
2022/08/22 01:19:00;;;;;;;7.90;4.70;;;16.00;99.90;;;;;;5085728;28;20559;-48
2022/08/22 01:21:57;;;;;;;5.20;4.13;;;16.00;99.90;;;;;;5097289;28;20785;-51
2022/08/22 01:25:21;;;;;;;6.20;4.53;;;15.90;1.00;;;;;;5097552;28;20435;-53
2022/08/22 01:28:30;;;;;;;6.87;5.23;;;16.00;99.90;;;;;;5097485;28;20534;-50
2022/08/22 01:31:36;;;;;;;8.90;5.80;;;15.80;1.00;;;;;;5097168;28;20430;-48
2022/08/22 01:34:49;;;;;;;6.07;5.27;;;15.70;1.00;;;;;;5095162;28;20880;-53
2022/08/22 01:37:43;;;;;;;6.83;4.23;;;15.60;1.00;;;;;;5054799;28;20857;-54
2022/08/22 01:40:41;;;;;;;5.27;4.77;;;15.60;1.00;;;;;;5097318;28;20488;-55
2022/08/22 01:43:15;;;;;;;8.50;4.80;;;15.60;1.00;;;;;;5096427;28;20464;-54
2022/08/22 01:46:09;;;;;;;5.23;4.73;;;15.60;1.00;;;;;;5097923;28;20489;-50
2022/08/22 01:48:46;;;;;;;5.97;4.80;;;15.60;1.00;;;;;;5096762;28;20449;-54
2022/08/22 01:51:21;;;;;;;6.87;4.50;;;15.60;1.00;;;;;;5097157;28;20493;-50
2022/08/22 01:53:58;;;;;;;7.43;3.83;;;15.60;1.00;;;;;;5096379;28;20817;-55
2022/08/22 01:56:31;;;;;;;7.53;5.07;;;15.50;1.00;;;;;;5097293;28;20438;-50
2022/08/22 01:59:01;;;;;;;7.87;5.43;;;15.40;1.00;;;;;;5097360;28;20467;-47
2022/08/22 02:01:41;;;;;;;5.53;4.47;;;15.40;1.00;;;;;;5096641;28;20470;-48
2022/08/22 02:04:17;;;;;;;5.80;4.63;;;15.40;1.00;;;;;;5096736;28;20737;-50
2022/08/22 02:06:58;;;;;;;8.03;5.30;;;15.30;1.00;;;;;;5096998;28;20464;-50
2022/08/22 02:09:38;;;;;;;5.97;4.77;;;15.30;1.00;;;;;;5097419;28;20460;-50
2022/08/22 02:12:23;;;;;;;10.80;5.10;;;15.30;1.00;;;;;;5097356;28;20464;-54
2022/08/22 02:14:58;;;;;;;4.40;4.00;;;15.30;1.00;;;;;;5095492;28;20472;-51
2022/08/22 02:17:30;;;;;;;5.33;4.57;;;15.30;1.00;;;;;;5097102;28;20872;-47
2022/08/22 02:20:06;;;;;;;7.87;5.73;;;15.30;1.00;;;;;;5096381;28;20790;-50
2022/08/22 02:22:42;;;;;;;5.63;5.07;;;15.30;1.00;;;;;;5096474;28;20563;-52
2022/08/22 02:25:17;;;;;;;5.27;4.83;;;15.40;1.00;;;;;;5096174;28;20434;-49
2022/08/22 02:27:52;;;;;;;6.50;5.40;;;15.30;1.00;;;;;;5096690;28;20468;-50
2022/08/22 02:30:29;;;;;;;5.30;4.80;;;15.20;1.00;;;;;;5096806;28;20713;-53
2022/08/22 02:33:04;;;;;;;6.00;4.63;;;15.20;1.00;;;;;;5092016;28;20505;-51
2022/08/22 02:35:37;;;;;;;7.17;5.20;;;15.20;1.00;;;;;;5096218;28;20466;-50
2022/08/22 02:38:25;;;;;;;5.90;5.30;;;15.10;1.00;;;;;;5094287;28;20739;-50
2022/08/22 02:41:05;;;;;;;8.47;5.70;;;15.10;1.00;;;;;;5093137;28;20864;-48
2022/08/22 02:43:42;;;;;;;6.17;5.20;;;15.10;1.00;;;;;;5096002;28;20452;-50
2022/08/22 02:46:24;;;;;;;5.83;5.33;;;15.10;1.00;;;;;;5100299;28;20460;-50
2022/08/22 02:49:01;;;;;;;10.00;5.07;;;15.10;1.00;;;;;;5099592;28;20460;-51
2022/08/22 02:51:36;;;;;;;5.93;5.27;;;15.00;1.00;;;;;;5100775;28;20762;-50
2022/08/22 02:54:17;;;;;;;6.63;5.23;;;15.10;1.00;;;;;;5100897;28;20554;-53
2022/08/22 02:56:52;;;;;;;10.47;5.60;;;15.00;1.00;;;;;;5100411;28;20563;-54
2022/08/22 02:59:31;;;;;;;5.90;5.30;;;15.00;1.00;;;;;;5100391;28;20548;-54
2022/08/22 03:02:19;;;;;;;7.53;6.30;;;14.90;1.00;;;;;;5099504;28;20456;-50
2022/08/22 03:04:51;;;;;;;6.20;5.60;;;14.90;1.00;;;;;;5099528;28;20492;-53
2022/08/22 03:07:31;;;;;;;5.93;5.33;;;14.90;1.00;;;;;;5097934;28;20478;-51
2022/08/22 03:10:12;;;;;;;6.30;4.97;;;14.90;1.00;;;;;;5098223;28;20901;-53
2022/08/22 03:12:52;;;;;;;8.83;5.50;;;14.80;1.00;;;;;;5098386;28;20465;-49
2022/08/22 03:15:26;;;;;;;7.00;5.10;;;14.70;1.00;;;;;;5099390;28;20460;-50
2022/08/22 03:18:03;;;;;;;6.97;5.70;;;14.70;1.00;;;;;;5096254;28;20529;-52
2022/08/22 03:20:48;;;;;;;7.30;5.20;;;14.70;1.00;;;;;;5098746;28;20483;-50
2022/08/22 03:23:28;;;;;;;9.03;5.47;;;14.70;1.00;;;;;;5098848;28;20460;-54
2022/08/22 03:26:03;;;;;;;6.83;5.10;;;14.60;1.00;;;;;;5099683;28;20460;-54
2022/08/22 03:28:36;;;;;;;6.70;5.50;;;14.60;1.00;;;;;;5098867;28;20887;-49
2022/08/22 03:31:13;;;;;;;7.67;6.07;;;14.60;1.00;;;;;;5098529;28;20457;-52
2022/08/22 03:33:41;;;;;;;6.50;5.90;;;14.60;1.00;;;;;;5079862;28;20465;-53
2022/08/22 03:36:25;;;;;;;7.20;6.20;;;14.60;1.00;;;;;;5087743;28;20453;-51
2022/08/22 03:39:08;;;;;;;8.23;6.13;;;14.50;1.00;;;;;;5098831;28;20471;-50
2022/08/22 03:42:13;;;;;;;6.13;5.53;;;14.50;1.00;;;;;;5099049;28;20572;-51
2022/08/22 03:45:20;;;;;;;8.43;5.90;;;14.50;1.00;;;;;;5068326;28;20567;-48
2022/08/22 03:48:14;;;;;;;7.67;6.03;;;14.40;1.00;;;;;;5079135;28;20461;-47
2022/08/22 03:51:11;;;;;;;9.63;6.60;;;14.30;1.00;;;;;;5098437;28;20461;-51
2022/08/22 03:54:06;;;;;;;5.30;4.90;;;14.20;78.70;;;;;;5079460;28;20504;-48
2022/08/22 03:57:17;;;;;;;9.03;5.90;;;14.20;99.90;;;;;;5089926;28;20826;-53
2022/08/22 04:00:08;;;;;;;7.57;5.90;;;14.30;97.70;;;;;;5091387;28;20863;-50
2022/08/22 04:03:14;;;;;;;6.03;5.53;;;14.30;22.00;;;;;;5097513;28;20812;-55
2022/08/22 04:06:05;;;;;;;9.07;5.80;;;14.30;8.10;;;;;;5086672;28;20443;-54
2022/08/22 04:09:08;;;;;;;6.50;5.90;;;14.30;1.00;;;;;;5098471;28;20435;-49
2022/08/22 04:12:03;;;;;;;6.40;5.43;;;14.30;1.00;;;;;;5084786;28;20927;-49
2022/08/22 04:14:50;;;;;;;7.53;5.63;;;14.30;1.00;;;;;;5096412;28;20480;-54
2022/08/22 04:17:41;;;;;;;6.63;5.90;;;14.30;1.00;;;;;;5094743;28;20790;-51
2022/08/22 04:20:32;;;;;;;8.60;7.07;;;14.20;1.30;;;;;;5093992;28;20492;-55
2022/08/22 04:23:26;;;;;;;7.50;5.60;;;14.20;31.40;;;;;;5094764;28;20543;-54
2022/08/22 04:25:58;;;;;;;7.10;5.70;;;14.20;34.60;;;;;;5096780;28;20448;-55
2022/08/22 04:28:33;;;;;;;6.30;5.53;;;14.10;67.50;;;;;;5097228;28;20452;-55
2022/08/22 04:31:09;;;;;;;11.70;7.13;;;14.10;99.90;;;;;;5093934;28;20460;-53
2022/08/22 04:33:45;;;;;;;7.03;5.90;;;14.10;85.10;;;;;;5095968;28;20459;-50
2022/08/22 04:36:22;;;;;;;8.87;5.90;;;14.10;13.40;;;;;;5096360;28;20873;-54
2022/08/22 04:38:57;;;;;;;7.87;6.60;;;14.10;4.70;;;;;;5093897;28;20501;-57
2022/08/22 04:41:41;;;;;;;6.70;6.10;;;14.10;56.80;;;;;;5096223;28;20749;-54
2022/08/22 04:44:18;;;;;;;11.97;6.40;;;14.10;99.90;;;;;;5094530;28;20443;-52
2022/08/22 04:46:54;;;;;;;6.37;5.77;;;14.00;99.90;;;;;;5096093;28;20800;-55
2022/08/22 04:49:28;;;;;;;6.47;5.87;;;14.00;99.90;;;;;;5096605;28;20770;-50
2022/08/22 04:52:05;;;;;;;7.13;6.27;;;14.10;99.90;;;;;;5092052;28;20471;-48
2022/08/22 04:54:43;;;;;;;7.10;6.03;;;14.10;99.90;;;;;;5092137;28;20923;-54
2022/08/22 04:57:21;;;;;;;7.60;5.53;;;14.20;99.90;;;;;;5093980;28;20550;-55
2022/08/22 04:59:50;;;;;;;7.23;6.60;;;14.20;99.90;;;;;;5096228;28;20459;-57
2022/08/22 05:02:26;;;;;;;8.70;6.70;;;14.30;99.90;;;;;;5094710;28;20510;-54
2022/08/22 05:05:00;;;;;;;7.17;5.83;;;14.40;99.90;;;;;;5095209;28;20434;-53
2022/08/22 05:07:35;;;;;;;6.53;5.93;;;14.50;99.90;;;;;;5093421;28;20457;-53
2022/08/22 05:10:07;;;;;;;6.23;5.63;;;14.40;94.70;;;;;;5093024;28;20521;-55
2022/08/22 05:12:38;;;;;;;7.30;6.57;;;14.50;82.00;;;;;;5093939;28;20566;-51
2022/08/22 05:15:16;;;;;;;8.43;6.80;;;14.60;67.20;;;;;;5093850;28;20833;-53
2022/08/22 05:17:47;;;;;;;7.30;6.70;;;14.60;47.60;;;;;;5096333;28;20435;-57
2022/08/22 05:20:19;;;;;;;7.10;6.10;;;14.60;55.70;;;;;;5095293;28;20496;-54
2022/08/22 05:22:52;;;;;;;9.13;6.90;;;14.70;72.80;;;;;;5095794;28;20431;-55
2022/08/22 05:25:29;;;;;;;8.50;7.50;;;14.90;86.70;;;;;;5095799;28;20439;-54
2022/08/22 05:28:06;;;;;;;8.40;7.30;;;14.90;79.70;;;;;;5096841;28;20764;-56
2022/08/22 05:30:35;;;;;;;10.63;7.03;;;15.00;57.60;;;;;;5097689;28;20452;-55
2022/08/22 05:33:15;;;;;;;8.43;7.60;;;15.10;19.10;;;;;;5088878;28;20522;-57
2022/08/22 05:35:47;;;;;;;8.33;7.50;;;15.20;5.00;;;;;;5097034;28;20885;-56
2022/08/22 05:38:21;;;;;;;8.73;7.80;;;15.30;1.00;;;;;;5097574;28;20889;-55
2022/08/22 05:41:00;;;;;;;10.40;7.33;;;15.30;1.00;;;;;;5097288;28;20925;-55
2022/08/22 05:43:28;;;;;;;7.70;6.97;;;15.40;1.00;;;;;;5096741;28;20757;-56
2022/08/22 05:45:57;;;;;;;11.50;7.90;;;15.50;1.00;;;;;;5097644;28;20792;-54
2022/08/22 05:48:43;;;;;;;7.70;7.00;;;15.60;1.00;;;;;;5096690;28;20886;-54
2022/08/22 05:51:17;;;;;;;12.83;7.80;;;15.70;1.00;;;;;;5097494;28;20466;-55
2022/08/22 05:53:52;;;;;;;10.03;7.90;;;15.90;1.00;;;;;;5096898;28;20453;-56
2022/08/22 05:56:27;;;;;;;10.73;9.20;;;16.10;1.00;;;;;;5096581;28;20466;-57
2022/08/22 05:58:58;;;;;;;13.00;9.30;;;16.30;1.00;;;;;;5096987;28;20999;-56
2022/08/22 06:01:32;;;;;;;15.53;11.10;;;16.50;1.00;;;;;;5097372;28;20482;-57
2022/08/22 06:04:13;;;;;;;18.97;10.07;;;16.80;1.00;;;;;;5096998;28;20549;-52
2022/08/22 06:06:43;;;;;;;14.60;10.93;;;17.00;1.00;;;;;;5096950;28;20467;-57
2022/08/22 06:09:19;;;;;;;12.77;11.37;;;17.20;1.00;;;;;;5096185;28;20698;-52
2022/08/22 06:11:56;;;;;;;12.13;10.30;;;17.40;1.00;;;;;;5096848;28;21010;-52
2022/08/22 06:14:31;;;;;;;15.50;11.77;;;17.60;1.00;;;;;;5096232;28;20435;-56
2022/08/22 06:17:17;;;;;;;18.47;11.90;;;17.90;1.00;;;;;;5096504;28;20454;-56
2022/08/22 06:19:48;;;;;;;18.40;11.80;;;18.10;1.00;;;;;;5098052;28;21007;-55
2022/08/22 06:22:23;;;;;;;18.80;11.90;;;18.50;99.90;;;;;;5100752;28;20554;-57
2022/08/22 06:24:57;;;;;;;20.70;12.33;;;18.50;99.90;;;;;;5100421;28;20444;-55
2022/08/22 06:27:30;;;;;;;23.53;12.20;;;18.60;99.90;;;;;;5101386;28;20464;-52
2022/08/22 06:30:02;;;;;;;25.50;13.90;;;18.50;99.90;;;;;;5100394;28;20460;-56
2022/08/22 06:32:32;;;;;;;19.50;12.37;;;18.60;99.90;;;;;;5100478;28;20472;-55
2022/08/22 06:35:07;;;;;;;19.63;12.00;;;18.70;99.90;;;;;;5100923;28;20514;-56
2022/08/22 06:37:39;;;;;;;20.43;11.27;;;18.60;99.90;;;;;;5101198;28;20460;-57
2022/08/22 06:40:11;;;;;;;19.40;12.33;;;18.50;99.90;;;;;;5100461;28;20485;-55
2022/08/22 06:42:43;;;;;;;25.13;11.73;;;18.60;99.90;;;;;;5100698;28;20473;-49
2022/08/22 06:45:20;;;;;;;21.07;12.23;;;18.80;99.90;;;;;;5100164;28;20509;-51
2022/08/22 06:47:55;;;;;;;16.70;11.27;;;19.10;99.90;;;;;;5100781;28;20525;-54
2022/08/22 06:50:29;;;;;;;18.50;10.63;;;19.60;99.90;;;;;;5099730;28;20533;-54
2022/08/22 06:53:01;;;;;;;15.90;11.33;;;20.00;99.90;;;;;;5098304;28;20957;-55
2022/08/22 06:55:37;;;;;;;18.37;10.40;;;20.50;99.90;;;;;;5100583;28;20456;-54
2022/08/22 06:58:07;;;;;;;18.67;11.43;;;21.00;99.90;;;;;;5100603;28;20496;-54
2022/08/22 07:00:37;;;;;;;14.20;9.60;;;21.70;99.90;;;;;;5100069;28;20466;-55
2022/08/22 07:03:12;;;;;;;15.30;8.50;;;22.00;99.90;;;;;;5099332;28;20461;-54
2022/08/22 07:05:46;;;;;;;11.30;8.40;;;21.80;99.90;;;;;;5100527;28;20505;-52
2022/08/22 07:08:15;;;;;;;13.30;8.17;;;21.60;99.90;;;;;;5098134;28;20464;-53
2022/08/22 07:10:48;;;;;;;17.90;8.70;;;21.60;99.90;;;;;;5099808;28;20954;-55
2022/08/22 07:13:19;;;;;;;16.27;9.37;;;21.70;99.90;;;;;;5096881;28;20490;-49
2022/08/22 07:15:53;;;;;;;14.63;8.87;;;21.70;99.90;;;;;;5097955;28;20435;-55
2022/08/22 07:18:23;;;;;;;20.00;7.90;;;21.60;99.90;;;;;;5077748;28;20485;-54
2022/08/22 07:20:56;;;;;;;14.10;7.40;;;21.60;99.90;;;;;;5078857;28;20467;-58
2022/08/22 07:23:34;;;;;;;16.37;8.03;;;21.50;99.90;;;;;;5092552;28;20435;-54
2022/08/22 07:26:17;;;;;;;9.37;8.43;;;21.50;99.90;;;;;;5098813;28;20445;-54
2022/08/22 07:28:49;;;;;;;11.80;7.40;;;21.40;99.90;;;;;;5099405;28;20882;-52
2022/08/22 07:31:29;;;;;;;11.37;8.30;;;21.40;99.90;;;;;;5096952;28;20477;-52
2022/08/22 07:34:08;;;;;;;11.00;7.50;;;21.50;99.90;;;;;;5098687;28;20460;-55
2022/08/22 07:36:47;;;;;;;10.50;7.60;;;21.60;99.90;;;;;;5098939;28;20928;-54
2022/08/22 07:39:25;;;;;;;11.07;6.40;;;22.10;99.90;;;;;;5078918;28;20461;-54
2022/08/22 07:42:14;;;;;;;9.20;6.40;;;22.50;99.90;;;;;;5077850;28;20595;-52
2022/08/22 07:44:59;;;;;;;6.47;5.30;;;22.90;99.90;;;;;;5094768;28;20456;-51
2022/08/22 07:47:38;;;;;;;8.93;4.97;;;23.40;99.90;;;;;;5092058;28;20560;-49
2022/08/22 07:50:09;;;;;;;7.53;5.10;;;23.60;99.90;;;;;;5085611;28;20907;-54
2022/08/22 07:52:42;;;;;;;7.83;5.40;;;23.80;99.90;;;;;;5099263;28;20924;-55
2022/08/22 07:55:21;;;;;;;11.73;5.20;;;24.10;99.90;;;;;;5099005;28;20532;-54
2022/08/22 07:57:54;;;;;;;5.13;4.07;;;24.20;99.90;;;;;;5098927;28;20456;-55
2022/08/22 08:00:24;;;;;;;7.07;4.13;;;24.10;99.90;;;;;;5099434;28;20836;-56
2022/08/22 08:02:53;;;;;;;6.13;4.10;;;24.20;99.90;;;;;;5099120;28;20473;-53
2022/08/22 08:05:26;;;;;;;6.90;3.67;;;24.30;99.90;;;;;;5098046;28;20434;-53
2022/08/22 08:08:00;;;;;;;6.07;3.03;;;24.10;99.90;;;;;;5099153;28;20456;-55
2022/08/22 08:10:31;;;;;;;4.80;3.20;;;24.20;99.90;;;;;;5096455;28;20506;-54
2022/08/22 08:13:08;;;;;;;5.33;3.37;;;24.60;99.90;;;;;;5096094;28;20897;-55
2022/08/22 08:15:44;;;;;;;4.00;3.50;;;25.20;99.90;;;;;;5092843;28;20469;-56
2022/08/22 08:18:18;;;;;;;2.97;2.67;;;25.70;99.90;;;;;;5078519;28;20464;-53
2022/08/22 08:20:55;;;;;;;5.03;3.30;;;25.70;99.90;;;;;;5096541;28;20561;-58
2022/08/22 08:23:25;;;;;;;5.97;3.10;;;25.80;99.90;;;;;;5098862;28;20743;-54
2022/08/22 08:26:00;;;;;;;5.03;3.17;;;26.10;99.90;;;;;;5097053;28;20537;-51
2022/08/22 08:28:33;;;;;;;6.60;2.90;;;26.60;99.90;;;;;;5097286;28;20779;-51
2022/08/22 08:31:07;;;;;;;4.00;2.63;;;26.90;99.90;;;;;;5095038;28;20766;-50
2022/08/22 08:33:38;;;;;;;3.10;2.80;;;27.10;99.90;;;;;;5097266;28;20458;-58
2022/08/22 08:36:12;;;;;;;6.80;2.67;;;27.50;99.90;;;;;;5098694;28;20465;-54
2022/08/22 08:38:49;;;;;;;5.07;2.83;;;27.90;99.90;;;;;;5097669;28;20460;-51
2022/08/22 08:41:45;;;;;;;4.23;2.47;;;27.90;99.90;;;;;;5097713;28;20483;-53
2022/08/22 08:44:27;;;;;;;4.23;2.53;;;27.60;99.90;;;;;;5075322;28;20799;-50
2022/08/22 08:47:27;;;;;;;5.63;2.77;;;27.20;99.90;;;;;;5093654;28;20888;-54
2022/08/22 08:50:24;;;;;;;2.80;2.60;;;27.20;99.90;;;;;;5097513;28;20456;-55
2022/08/22 08:53:20;;;;;;;6.30;3.00;;;27.20;99.90;;;;;;5080478;28;20451;-57
2022/08/22 08:56:03;;;;;;;6.20;3.03;;;27.40;99.90;;;;;;5098524;28;20737;-57
2022/08/22 08:58:40;;;;;;;3.57;2.03;;;27.90;99.90;;;;;;5095124;28;20427;-52
2022/08/22 09:01:25;;;;;;;3.67;2.77;;;28.00;99.90;;;;;;5097848;28;20892;-57
2022/08/22 09:04:30;;;;;;;3.00;2.50;;;28.10;99.90;;;;;;5097252;28;20475;-56
2022/08/22 09:07:42;;;;;;;3.70;2.33;;;28.40;99.90;;;;;;5097017;28;20552;-55
2022/08/22 09:10:24;;;;;;;5.10;2.70;;;28.40;99.90;;;;;;5097059;28;20547;-50
2022/08/22 09:13:12;;;;;;;4.53;2.57;;;28.20;99.90;;;;;;5097508;28;20448;-59
2022/08/22 09:16:06;;;;;;;6.53;2.90;;;28.20;99.90;;;;;;5097607;28;20554;-49
2022/08/22 09:19:10;;;;;;;2.90;2.57;;;28.30;99.90;;;;;;5089213;28;20488;-59
2022/08/22 09:22:10;;;;;;;6.03;3.63;;;28.50;99.90;;;;;;5098625;28;20487;-56
2022/08/22 09:25:00;;;;;;;3.30;2.97;;;29.30;99.90;;;;;;5076293;28;20461;-55
2022/08/22 09:27:33;;;;;;;5.53;2.97;;;29.60;99.90;;;;;;5079935;28;20886;-51
2022/08/22 09:30:10;;;;;;;2.83;2.50;;;29.60;99.90;;;;;;5110411;28;20456;-54
2022/08/22 09:32:47;;;;;;;4.80;2.73;;;29.30;99.90;;;;;;5094445;28;20464;-53
2022/08/22 09:35:25;;;;;;;4.40;2.80;;;29.00;99.90;;;;;;5101811;28;20468;-53
2022/08/22 09:38:17;;;;;;;3.33;3.00;;;29.70;99.90;;;;;;5097390;28;20554;-54
2022/08/22 09:40:55;;;;;;;5.10;3.33;;;29.20;99.90;;;;;;5087303;28;20464;-50
2022/08/22 09:43:30;;;;;;;6.33;2.83;;;29.80;99.90;;;;;;5096228;28;20492;-57
2022/08/22 09:46:10;;;;;;;3.60;2.67;;;30.30;99.90;;;;;;5097506;28;20528;-55
2022/08/22 09:49:01;;;;;;;2.90;2.17;;;31.00;99.90;;;;;;5097179;28;20513;-57
2022/08/22 09:51:39;;;;;;;2.97;2.50;;;31.00;99.90;;;;;;5096702;28;20899;-56
2022/08/22 09:54:29;;;;;;;2.80;2.30;;;31.30;99.90;;;;;;5096363;28;20888;-59
2022/08/22 09:57:18;;;;;;;4.50;2.87;;;31.40;99.90;;;;;;5097410;28;20438;-54
2022/08/22 09:59:55;;;;;;;3.83;2.77;;;31.50;99.90;;;;;;5097643;28;20456;-49
2022/08/22 10:02:35;;;;;;;3.43;2.60;;;31.70;99.90;;;;;;5096134;28;20553;-54
2022/08/22 10:05:12;;;;;;;3.77;2.83;;;32.00;99.90;;;;;;5097195;28;20805;-53
2022/08/22 10:08:04;;;;;;;4.00;3.60;;;32.20;99.90;;;;;;5097003;28;20521;-48
2022/08/22 10:10:50;;;;;;;3.83;2.70;;;32.10;99.90;;;;;;5097581;28;20542;-52
2022/08/22 10:13:33;;;;;;;3.90;3.00;;;31.70;99.90;;;;;;5091490;28;20829;-52
2022/08/22 10:16:15;;;;;;;4.83;2.83;;;31.70;99.90;;;;;;5095860;28;20562;-53
2022/08/22 10:18:53;;;;;;;4.70;2.70;;;31.80;99.90;;;;;;5095547;28;20569;-57
2022/08/22 10:21:30;;;;;;;3.40;3.10;;;31.80;99.90;;;;;;5096124;28;20430;-54
2022/08/22 10:24:03;;;;;;;2.73;2.50;;;31.30;99.90;;;;;;5095695;28;20616;-54
2022/08/22 10:26:39;;;;;;;3.47;3.17;;;31.90;99.90;;;;;;5095099;28;20505;-57
2022/08/22 10:29:42;;;;;;;3.90;3.27;;;32.20;99.90;;;;;;5097238;28;20552;-57
2022/08/22 10:32:24;;;;;;;4.60;3.10;;;32.30;99.90;;;;;;5097364;28;20479;-54
2022/08/22 10:35:06;;;;;;;2.93;2.40;;;30.60;99.90;;;;;;5094725;28;20517;-54
2022/08/22 10:37:40;;;;;;;5.70;3.27;;;30.50;99.90;;;;;;5095317;28;20883;-56
2022/08/22 10:40:18;;;;;;;3.33;2.60;;;30.50;99.90;;;;;;5097186;28;20843;-55
2022/08/22 10:42:52;;;;;;;3.30;3.00;;;30.30;99.90;;;;;;5094101;28;20494;-55
2022/08/22 10:45:29;;;;;;;4.13;3.50;;;30.20;99.90;;;;;;5096729;28;20939;-59
2022/08/22 10:48:35;;;;;;;3.83;3.10;;;30.80;99.90;;;;;;5096107;28;20434;-58
2022/08/22 10:51:15;;;;;;;4.70;3.57;;;31.10;99.90;;;;;;5094382;28;20464;-57
2022/08/22 10:53:57;;;;;;;5.43;3.07;;;30.50;99.90;;;;;;5093831;28;20466;-54
2022/08/22 10:56:35;;;;;;;3.37;3.07;;;29.60;99.90;;;;;;5093573;28;20905;-59
2022/08/22 10:59:22;;;;;;;4.37;3.37;;;30.80;99.90;;;;;;5095145;28;20558;-56
2022/08/22 11:01:57;;;;;;;3.63;3.33;;;31.90;99.90;;;;;;5093691;28;20495;-57
2022/08/22 11:04:38;;;;;;;4.03;3.63;;;32.50;99.90;;;;;;5096020;28;20831;-55
2022/08/22 11:07:37;;;;;;;3.50;3.20;;;33.10;99.90;;;;;;5097595;28;20471;-53
2022/08/22 11:10:19;;;;;;;3.17;2.87;;;33.40;99.90;;;;;;5093228;28;20434;-57
2022/08/22 11:12:58;;;;;;;3.83;3.07;;;34.20;99.90;;;;;;5095165;28;20762;-53
2022/08/22 11:15:50;;;;;;;3.87;3.20;;;34.20;99.90;;;;;;5100050;28;20444;-57
2022/08/22 11:18:23;;;;;;;4.27;3.77;;;34.20;99.90;;;;;;5082203;28;20801;-56
2022/08/22 11:21:02;;;;;;;6.13;3.67;;;33.90;99.90;;;;;;5095569;28;20880;-56
2022/08/22 11:23:55;;;;;;;5.23;2.93;;;33.00;99.90;;;;;;5099069;28;20468;-58
2022/08/22 11:26:37;;;;;;;3.43;3.13;;;31.70;99.90;;;;;;5093360;28;20517;-52
2022/08/22 11:29:26;;;;;;;3.20;2.97;;;31.20;99.90;;;;;;5097868;28;20456;-58
2022/08/22 11:32:03;;;;;;;3.70;3.47;;;30.50;99.90;;;;;;5088897;28;20464;-56
2022/08/22 11:34:43;;;;;;;4.50;3.37;;;30.50;99.90;;;;;;5098837;28;20506;-54
2022/08/22 11:37:22;;;;;;;4.73;3.70;;;30.80;99.90;;;;;;5098617;28;20468;-58
2022/08/22 11:40:06;;;;;;;3.10;2.80;;;31.10;99.90;;;;;;5099431;28;20467;-55
2022/08/22 11:42:43;;;;;;;4.17;3.33;;;31.40;99.90;;;;;;5099308;28;20487;-55
2022/08/22 11:45:20;;;;;;;4.00;3.40;;;31.60;99.90;;;;;;5098520;28;20473;-53
2022/08/22 11:48:11;;;;;;;3.30;2.90;;;31.60;99.90;;;;;;5096858;28;20761;-54
2022/08/22 11:50:44;;;;;;;3.37;3.07;;;31.70;99.90;;;;;;5099144;28;20495;-59
2022/08/22 11:53:22;;;;;;;4.53;3.00;;;31.70;99.90;;;;;;5098880;28;20474;-57
2022/08/22 11:56:10;;;;;;;5.40;3.37;;;32.10;99.90;;;;;;5097481;28;20566;-56
2022/08/22 11:58:54;;;;;;;6.17;3.30;;;32.20;99.90;;;;;;5097645;28;20474;-54
2022/08/22 12:01:32;;;;;;;3.57;3.23;;;31.70;99.90;;;;;;5099105;28;20468;-58
2022/08/22 12:04:11;;;;;;;5.90;3.20;;;31.40;99.90;;;;;;5099235;28;20850;-54
2022/08/22 12:06:56;;;;;;;6.17;3.60;;;30.90;99.90;;;;;;5097882;28;20747;-52
2022/08/22 12:09:46;;;;;;;4.07;3.70;;;30.70;99.90;;;;;;5103996;28;20468;-55
2022/08/22 12:12:24;;;;;;;3.93;3.37;;;30.60;99.90;;;;;;5096694;28;20438;-52
2022/08/22 12:14:58;;;;;;;3.97;3.57;;;30.50;99.90;;;;;;5097467;28;20985;-53
2022/08/22 12:18:11;;;;;;;5.23;3.23;;;30.50;99.90;;;;;;5097741;28;20460;-54
2022/08/22 12:21:20;;;;;;;3.53;3.23;;;31.00;99.90;;;;;;5097138;28;20480;-51
2022/08/22 12:24:12;;;;;;;4.97;3.70;;;30.70;99.90;;;;;;5095932;28;20488;-55
2022/08/22 12:26:52;;;;;;;4.20;3.80;;;30.80;99.90;;;;;;5097143;28;20471;-55
2022/08/22 12:29:32;;;;;;;4.60;3.47;;;30.80;99.90;;;;;;5093344;28;20468;-53
2022/08/22 12:32:47;;;;;;;5.87;3.30;;;30.60;99.90;;;;;;5076017;28;20782;-50
2022/08/22 12:35:30;;;;;;;3.90;3.10;;;30.60;99.90;;;;;;5077215;28;20465;-58
2022/08/22 12:38:09;;;;;;;4.80;4.00;;;30.20;99.90;;;;;;5078238;28;20446;-54
2022/08/22 12:40:54;;;;;;;4.87;3.60;;;30.20;99.90;;;;;;5077403;28;20461;-57
2022/08/22 12:43:52;;;;;;;4.70;4.07;;;30.40;99.90;;;;;;5080651;28;21007;-57
2022/08/22 12:46:33;;;;;;;4.87;4.00;;;30.40;99.90;;;;;;5098326;28;20515;-50
2022/08/22 12:49:22;;;;;;;4.73;4.30;;;30.50;99.90;;;;;;5097485;28;20907;-53
2022/08/22 12:52:09;;;;;;;4.30;3.83;;;30.70;99.90;;;;;;5098351;28;20462;-55
2022/08/22 12:55:13;;;;;;;4.00;3.60;;;30.60;99.90;;;;;;5094688;28;20833;-54
2022/08/22 12:57:47;;;;;;;6.40;4.20;;;30.20;99.90;;;;;;5098107;28;20434;-49
2022/08/22 13:00:30;;;;;;;5.10;3.20;;;30.30;99.90;;;;;;5097862;28;20467;-49
2022/08/22 13:03:08;;;;;;;4.43;3.90;;;30.20;99.90;;;;;;5097801;28;20498;-53
2022/08/22 13:05:44;;;;;;;4.53;3.83;;;30.10;99.90;;;;;;5095325;28;20476;-52
2022/08/22 13:08:23;;;;;;;5.53;3.57;;;30.10;99.90;;;;;;5097507;28;20466;-53
2022/08/22 13:10:57;;;;;;;5.47;3.90;;;30.20;99.90;;;;;;5095855;28;20736;-56
2022/08/22 13:13:33;;;;;;;4.83;4.37;;;30.40;99.90;;;;;;5097527;28;20457;-52
2022/08/22 13:16:07;;;;;;;7.00;3.80;;;30.60;99.90;;;;;;5097841;28;20911;-51
2022/08/22 13:18:49;;;;;;;4.57;4.00;;;30.70;99.90;;;;;;5097569;28;20508;-53
2022/08/22 13:21:23;;;;;;;4.47;4.00;;;30.80;99.90;;;;;;5098097;28;20495;-52
2022/08/22 13:23:55;;;;;;;5.27;3.77;;;30.70;99.90;;;;;;5101515;28;20516;-51
2022/08/22 13:26:25;;;;;;;4.30;3.80;;;30.30;99.90;;;;;;5097685;28;20522;-54
2022/08/22 13:29:04;;;;;;;3.83;3.47;;;30.20;99.90;;;;;;5096635;28;20468;-53
2022/08/22 13:31:36;;;;;;;3.93;3.53;;;30.30;99.90;;;;;;5097479;28;20460;-51
2022/08/22 13:34:13;;;;;;;4.93;3.80;;;30.30;99.90;;;;;;5098502;28;20452;-56
2022/08/22 13:36:47;;;;;;;3.70;3.40;;;30.70;99.90;;;;;;5098106;28;20548;-51
2022/08/22 13:39:25;;;;;;;5.30;4.00;;;30.50;99.90;;;;;;5094182;28;20780;-50
2022/08/22 13:41:55;;;;;;;3.97;3.57;;;30.30;99.90;;;;;;5112692;28;20778;-55
2022/08/22 13:44:26;;;;;;;3.80;3.43;;;30.40;99.90;;;;;;5116070;28;20947;-57
2022/08/22 13:46:56;;;;;;;4.10;3.70;;;30.40;99.90;;;;;;5099455;28;20971;-51
2022/08/22 13:49:35;;;;;;;5.23;3.53;;;29.60;99.90;;;;;;5097349;28;20464;-54
2022/08/22 13:52:15;;;;;;;5.23;3.90;;;28.70;99.90;;;;;;5097422;28;20556;-53
2022/08/22 13:54:58;;;;;;;5.03;3.80;;;28.30;99.90;;;;;;5096593;28;20496;-52
2022/08/22 13:57:31;;;;;;;4.10;3.20;;;28.00;99.90;;;;;;5097100;28;20483;-50
2022/08/22 14:00:08;;;;;;;3.83;3.43;;;28.30;99.90;;;;;;5097371;28;20908;-49